sensor_id;sensor_type;location;lat;lon;timestamp;P1;durP1;ratioP1;P2;durP2;ratioP2
28166;SDS011;15455;53.376;-6.262;2023-05-10T00:02:36;6.28;;;1.85;;
28166;SDS011;15455;53.376;-6.262;2023-05-10T00:05:22;9.32;;;2.10;;
28166;SDS011;15455;53.376;-6.262;2023-05-10T00:08:07;4.50;;;1.83;;
28166;SDS011;15455;53.376;-6.262;2023-05-10T00:10:53;7.90;;;1.75;;
28166;SDS011;15455;53.376;-6.262;2023-05-10T00:13:38;5.60;;;1.63;;
28166;SDS011;15455;53.376;-6.262;2023-05-10T00:16:24;9.82;;;1.50;;
28166;SDS011;15455;53.376;-6.262;2023-05-10T00:19:10;9.32;;;1.30;;
28166;SDS011;15455;53.376;-6.262;2023-05-10T00:21:55;9.40;;;1.27;;
28166;SDS011;15455;53.376;-6.262;2023-05-10T00:24:41;7.25;;;1.58;;
28166;SDS011;15455;53.376;-6.262;2023-05-10T00:27:26;3.75;;;1.10;;
28166;SDS011;15455;53.376;-6.262;2023-05-10T00:30:11;6.97;;;1.52;;
28166;SDS011;15455;53.376;-6.262;2023-05-10T00:32:57;6.22;;;2.22;;
28166;SDS011;15455;53.376;-6.262;2023-05-10T00:35:43;11.80;;;2.08;;
28166;SDS011;15455;53.376;-6.262;2023-05-10T00:38:29;8.40;;;1.38;;
28166;SDS011;15455;53.376;-6.262;2023-05-10T00:41:14;5.90;;;1.33;;
28166;SDS011;15455;53.376;-6.262;2023-05-10T00:44:01;9.02;;;2.03;;
28166;SDS011;15455;53.376;-6.262;2023-05-10T00:46:47;9.57;;;1.73;;
28166;SDS011;15455;53.376;-6.262;2023-05-10T00:49:34;9.65;;;1.33;;
28166;SDS011;15455;53.376;-6.262;2023-05-10T00:52:20;10.82;;;1.80;;
28166;SDS011;15455;53.376;-6.262;2023-05-10T00:55:09;8.35;;;1.33;;
28166;SDS011;15455;53.376;-6.262;2023-05-10T00:57:57;6.47;;;1.20;;
28166;SDS011;15455;53.376;-6.262;2023-05-10T01:00:42;8.05;;;1.30;;
28166;SDS011;15455;53.376;-6.262;2023-05-10T01:03:31;5.03;;;1.67;;
28166;SDS011;15455;53.376;-6.262;2023-05-10T01:06:17;8.35;;;1.38;;
28166;SDS011;15455;53.376;-6.262;2023-05-10T01:09:02;5.75;;;1.60;;
28166;SDS011;15455;53.376;-6.262;2023-05-10T01:11:48;8.73;;;1.83;;
28166;SDS011;15455;53.376;-6.262;2023-05-10T01:14:34;4.25;;;1.15;;
28166;SDS011;15455;53.376;-6.262;2023-05-10T01:17:21;10.05;;;1.38;;
28166;SDS011;15455;53.376;-6.262;2023-05-10T01:20:08;5.35;;;1.40;;
28166;SDS011;15455;53.376;-6.262;2023-05-10T01:36:15;5.28;;;1.35;;
28166;SDS011;15455;53.376;-6.262;2023-05-10T01:39:11;3.33;;;1.05;;
28166;SDS011;15455;53.376;-6.262;2023-05-10T01:42:09;3.53;;;0.95;;
28166;SDS011;15455;53.376;-6.262;2023-05-10T01:47:50;7.78;;;1.20;;
28166;SDS011;15455;53.376;-6.262;2023-05-10T01:50:43;3.83;;;1.10;;
28166;SDS011;15455;53.376;-6.262;2023-05-10T01:53:31;10.02;;;1.35;;
28166;SDS011;15455;53.376;-6.262;2023-05-10T01:56:20;7.47;;;1.00;;
28166;SDS011;15455;53.376;-6.262;2023-05-10T01:59:12;2.00;;;0.90;;
28166;SDS011;15455;53.376;-6.262;2023-05-10T02:02:02;4.13;;;0.95;;
28166;SDS011;15455;53.376;-6.262;2023-05-10T02:04:50;3.28;;;1.10;;
28166;SDS011;15455;53.376;-6.262;2023-05-10T02:07:36;3.55;;;0.95;;
28166;SDS011;15455;53.376;-6.262;2023-05-10T02:10:22;5.68;;;1.30;;
28166;SDS011;15455;53.376;-6.262;2023-05-10T02:13:07;3.80;;;1.23;;
28166;SDS011;15455;53.376;-6.262;2023-05-10T02:15:55;5.82;;;1.42;;
28166;SDS011;15455;53.376;-6.262;2023-05-10T02:18:42;4.53;;;1.23;;
28166;SDS011;15455;53.376;-6.262;2023-05-10T02:21:29;7.47;;;0.93;;
28166;SDS011;15455;53.376;-6.262;2023-05-10T02:24:16;7.28;;;1.80;;
28166;SDS011;15455;53.376;-6.262;2023-05-10T02:27:03;3.38;;;1.27;;
28166;SDS011;15455;53.376;-6.262;2023-05-10T02:29:49;5.72;;;1.45;;
28166;SDS011;15455;53.376;-6.262;2023-05-10T02:32:36;2.60;;;1.10;;
28166;SDS011;15455;53.376;-6.262;2023-05-10T02:35:22;5.60;;;1.05;;
28166;SDS011;15455;53.376;-6.262;2023-05-10T02:38:10;4.10;;;1.55;;
28166;SDS011;15455;53.376;-6.262;2023-05-10T02:40:57;5.63;;;1.23;;
28166;SDS011;15455;53.376;-6.262;2023-05-10T02:43:44;4.85;;;1.10;;
28166;SDS011;15455;53.376;-6.262;2023-05-10T02:46:32;8.80;;;1.60;;
28166;SDS011;15455;53.376;-6.262;2023-05-10T02:49:19;11.32;;;1.25;;
28166;SDS011;15455;53.376;-6.262;2023-05-10T02:52:05;7.47;;;1.13;;
28166;SDS011;15455;53.376;-6.262;2023-05-10T02:54:58;11.35;;;1.58;;
28166;SDS011;15455;53.376;-6.262;2023-05-10T02:57:51;8.98;;;1.13;;
28166;SDS011;15455;53.376;-6.262;2023-05-10T03:00:42;5.65;;;1.00;;
28166;SDS011;15455;53.376;-6.262;2023-05-10T03:03:27;6.47;;;1.02;;
28166;SDS011;15455;53.376;-6.262;2023-05-10T03:06:13;3.60;;;1.30;;
28166;SDS011;15455;53.376;-6.262;2023-05-10T03:08:59;5.50;;;1.27;;
28166;SDS011;15455;53.376;-6.262;2023-05-10T03:15:11;7.82;;;1.10;;
28166;SDS011;15455;53.376;-6.262;2023-05-10T03:18:18;6.72;;;1.15;;
28166;SDS011;15455;53.376;-6.262;2023-05-10T03:21:08;7.05;;;1.15;;
28166;SDS011;15455;53.376;-6.262;2023-05-10T03:23:59;10.02;;;1.27;;
28166;SDS011;15455;53.376;-6.262;2023-05-10T03:26:55;8.38;;;1.48;;
28166;SDS011;15455;53.376;-6.262;2023-05-10T03:29:43;6.63;;;1.02;;
28166;SDS011;15455;53.376;-6.262;2023-05-10T03:32:32;7.03;;;1.30;;
28166;SDS011;15455;53.376;-6.262;2023-05-10T03:35:19;9.18;;;1.33;;
28166;SDS011;15455;53.376;-6.262;2023-05-10T03:38:05;3.65;;;0.82;;
28166;SDS011;15455;53.376;-6.262;2023-05-10T03:40:50;7.05;;;0.82;;
28166;SDS011;15455;53.376;-6.262;2023-05-10T03:43:35;3.15;;;0.98;;
28166;SDS011;15455;53.376;-6.262;2023-05-10T03:46:21;2.97;;;0.70;;
28166;SDS011;15455;53.376;-6.262;2023-05-10T03:49:07;4.88;;;0.88;;
28166;SDS011;15455;53.376;-6.262;2023-05-10T03:51:54;8.93;;;0.80;;
28166;SDS011;15455;53.376;-6.262;2023-05-10T03:54:40;3.90;;;1.10;;
28166;SDS011;15455;53.376;-6.262;2023-05-10T03:57:25;4.55;;;1.13;;
28166;SDS011;15455;53.376;-6.262;2023-05-10T04:00:10;13.18;;;1.30;;
28166;SDS011;15455;53.376;-6.262;2023-05-10T04:02:59;8.88;;;1.15;;
28166;SDS011;15455;53.376;-6.262;2023-05-10T04:05:45;4.07;;;0.88;;
28166;SDS011;15455;53.376;-6.262;2023-05-10T04:08:31;5.53;;;1.30;;
28166;SDS011;15455;53.376;-6.262;2023-05-10T04:11:16;14.23;;;1.58;;
28166;SDS011;15455;53.376;-6.262;2023-05-10T04:14:02;7.35;;;1.50;;
28166;SDS011;15455;53.376;-6.262;2023-05-10T04:16:47;10.93;;;1.63;;
28166;SDS011;15455;53.376;-6.262;2023-05-10T04:19:33;11.02;;;2.03;;
28166;SDS011;15455;53.376;-6.262;2023-05-10T04:22:18;8.38;;;1.30;;
28166;SDS011;15455;53.376;-6.262;2023-05-10T04:25:03;10.80;;;1.15;;
28166;SDS011;15455;53.376;-6.262;2023-05-10T04:27:50;7.35;;;0.93;;
28166;SDS011;15455;53.376;-6.262;2023-05-10T04:30:35;4.07;;;1.67;;
28166;SDS011;15455;53.376;-6.262;2023-05-10T04:33:20;4.75;;;1.70;;
28166;SDS011;15455;53.376;-6.262;2023-05-10T04:36:06;3.50;;;1.00;;
28166;SDS011;15455;53.376;-6.262;2023-05-10T04:38:52;5.20;;;1.00;;
28166;SDS011;15455;53.376;-6.262;2023-05-10T04:41:38;5.05;;;0.90;;
28166;SDS011;15455;53.376;-6.262;2023-05-10T04:44:23;9.85;;;0.80;;
28166;SDS011;15455;53.376;-6.262;2023-05-10T04:47:08;4.72;;;1.00;;
28166;SDS011;15455;53.376;-6.262;2023-05-10T04:49:56;7.05;;;1.10;;
28166;SDS011;15455;53.376;-6.262;2023-05-10T04:52:42;8.77;;;0.88;;
28166;SDS011;15455;53.376;-6.262;2023-05-10T04:55:27;3.13;;;0.70;;
28166;SDS011;15455;53.376;-6.262;2023-05-10T04:58:12;3.97;;;1.58;;
28166;SDS011;15455;53.376;-6.262;2023-05-10T05:01:04;5.03;;;1.00;;
28166;SDS011;15455;53.376;-6.262;2023-05-10T05:03:52;6.07;;;0.95;;
28166;SDS011;15455;53.376;-6.262;2023-05-10T05:06:38;4.15;;;1.60;;
28166;SDS011;15455;53.376;-6.262;2023-05-10T05:09:23;6.20;;;1.10;;
28166;SDS011;15455;53.376;-6.262;2023-05-10T05:12:09;3.47;;;0.80;;
28166;SDS011;15455;53.376;-6.262;2023-05-10T05:14:59;9.05;;;1.00;;
28166;SDS011;15455;53.376;-6.262;2023-05-10T05:17:44;3.63;;;0.57;;
28166;SDS011;15455;53.376;-6.262;2023-05-10T05:20:31;5.93;;;1.15;;
28166;SDS011;15455;53.376;-6.262;2023-05-10T05:23:18;6.90;;;1.23;;
28166;SDS011;15455;53.376;-6.262;2023-05-10T05:26:05;8.85;;;1.45;;
28166;SDS011;15455;53.376;-6.262;2023-05-10T05:28:51;5.30;;;1.05;;
28166;SDS011;15455;53.376;-6.262;2023-05-10T05:31:39;5.60;;;1.40;;
28166;SDS011;15455;53.376;-6.262;2023-05-10T05:34:25;4.70;;;0.95;;
28166;SDS011;15455;53.376;-6.262;2023-05-10T05:37:17;4.90;;;0.93;;
28166;SDS011;15455;53.376;-6.262;2023-05-10T05:40:04;4.32;;;0.68;;
28166;SDS011;15455;53.376;-6.262;2023-05-10T05:42:50;5.28;;;0.77;;
28166;SDS011;15455;53.376;-6.262;2023-05-10T05:45:36;7.80;;;0.82;;
28166;SDS011;15455;53.376;-6.262;2023-05-10T05:48:21;4.38;;;0.80;;
28166;SDS011;15455;53.376;-6.262;2023-05-10T05:51:06;3.45;;;0.82;;
28166;SDS011;15455;53.376;-6.262;2023-05-10T05:53:52;4.22;;;0.85;;
28166;SDS011;15455;53.376;-6.262;2023-05-10T05:56:37;2.35;;;0.60;;
28166;SDS011;15455;53.376;-6.262;2023-05-10T05:59:23;4.35;;;0.98;;
28166;SDS011;15455;53.376;-6.262;2023-05-10T06:02:09;5.60;;;0.82;;
28166;SDS011;15455;53.376;-6.262;2023-05-10T06:04:55;4.03;;;0.70;;
28166;SDS011;15455;53.376;-6.262;2023-05-10T06:07:40;1.90;;;0.70;;
28166;SDS011;15455;53.376;-6.262;2023-05-10T06:10:27;7.30;;;0.82;;
28166;SDS011;15455;53.376;-6.262;2023-05-10T06:13:12;7.35;;;0.77;;
28166;SDS011;15455;53.376;-6.262;2023-05-10T06:15:58;2.95;;;0.60;;
28166;SDS011;15455;53.376;-6.262;2023-05-10T06:18:43;3.03;;;0.68;;
28166;SDS011;15455;53.376;-6.262;2023-05-10T06:21:29;6.00;;;0.60;;
28166;SDS011;15455;53.376;-6.262;2023-05-10T06:24:15;2.10;;;0.80;;
28166;SDS011;15455;53.376;-6.262;2023-05-10T06:27:01;3.70;;;0.80;;
28166;SDS011;15455;53.376;-6.262;2023-05-10T06:29:46;2.17;;;0.40;;
28166;SDS011;15455;53.376;-6.262;2023-05-10T06:32:36;3.08;;;0.60;;
28166;SDS011;15455;53.376;-6.262;2023-05-10T06:35:21;6.80;;;0.50;;
28166;SDS011;15455;53.376;-6.262;2023-05-10T06:38:07;2.33;;;0.50;;
28166;SDS011;15455;53.376;-6.262;2023-05-10T06:40:52;4.60;;;1.00;;
28166;SDS011;15455;53.376;-6.262;2023-05-10T06:43:38;4.93;;;1.02;;
28166;SDS011;15455;53.376;-6.262;2023-05-10T06:46:26;4.57;;;0.85;;
28166;SDS011;15455;53.376;-6.262;2023-05-10T06:49:12;2.20;;;1.35;;
28166;SDS011;15455;53.376;-6.262;2023-05-10T06:51:57;6.38;;;1.10;;
28166;SDS011;15455;53.376;-6.262;2023-05-10T06:54:43;4.18;;;0.57;;
28166;SDS011;15455;53.376;-6.262;2023-05-10T06:57:29;6.38;;;0.77;;
28166;SDS011;15455;53.376;-6.262;2023-05-10T07:00:16;2.25;;;0.50;;
28166;SDS011;15455;53.376;-6.262;2023-05-10T07:03:03;5.35;;;0.60;;
28166;SDS011;15455;53.376;-6.262;2023-05-10T07:05:49;10.20;;;0.82;;
28166;SDS011;15455;53.376;-6.262;2023-05-10T07:08:34;1.70;;;0.43;;
28166;SDS011;15455;53.376;-6.262;2023-05-10T07:11:19;5.35;;;0.65;;
28166;SDS011;15455;53.376;-6.262;2023-05-10T07:14:05;2.42;;;0.50;;
28166;SDS011;15455;53.376;-6.262;2023-05-10T07:16:50;6.22;;;0.50;;
28166;SDS011;15455;53.376;-6.262;2023-05-10T07:19:35;5.82;;;1.00;;
28166;SDS011;15455;53.376;-6.262;2023-05-10T07:22:21;1.65;;;0.40;;
28166;SDS011;15455;53.376;-6.262;2023-05-10T07:25:07;4.43;;;0.82;;
28166;SDS011;15455;53.376;-6.262;2023-05-10T07:27:52;0.85;;;0.30;;
28166;SDS011;15455;53.376;-6.262;2023-05-10T07:30:38;1.73;;;0.45;;
28166;SDS011;15455;53.376;-6.262;2023-05-10T07:33:23;6.70;;;0.60;;
28166;SDS011;15455;53.376;-6.262;2023-05-10T07:36:08;3.08;;;0.50;;
28166;SDS011;15455;53.376;-6.262;2023-05-10T07:38:54;4.75;;;0.65;;
28166;SDS011;15455;53.376;-6.262;2023-05-10T07:41:39;1.00;;;0.30;;
28166;SDS011;15455;53.376;-6.262;2023-05-10T07:44:25;2.97;;;0.55;;
28166;SDS011;15455;53.376;-6.262;2023-05-10T07:47:11;3.92;;;0.30;;
28166;SDS011;15455;53.376;-6.262;2023-05-10T07:49:56;0.88;;;0.45;;
28166;SDS011;15455;53.376;-6.262;2023-05-10T07:52:42;2.25;;;0.60;;
28166;SDS011;15455;53.376;-6.262;2023-05-10T07:55:28;0.95;;;0.45;;
28166;SDS011;15455;53.376;-6.262;2023-05-10T07:58:14;2.70;;;0.50;;
28166;SDS011;15455;53.376;-6.262;2023-05-10T08:00:59;1.63;;;0.30;;
28166;SDS011;15455;53.376;-6.262;2023-05-10T08:03:45;3.38;;;0.32;;
28166;SDS011;15455;53.376;-6.262;2023-05-10T08:06:30;1.23;;;0.30;;
28166;SDS011;15455;53.376;-6.262;2023-05-10T08:09:16;1.23;;;0.50;;
28166;SDS011;15455;53.376;-6.262;2023-05-10T08:12:02;3.13;;;0.22;;
28166;SDS011;15455;53.376;-6.262;2023-05-10T08:14:48;2.55;;;0.40;;
28166;SDS011;15455;53.376;-6.262;2023-05-10T08:17:33;1.15;;;0.47;;
28166;SDS011;15455;53.376;-6.262;2023-05-10T08:20:19;1.27;;;0.30;;
28166;SDS011;15455;53.376;-6.262;2023-05-10T08:23:05;1.42;;;0.35;;
28166;SDS011;15455;53.376;-6.262;2023-05-10T08:25:51;1.27;;;0.30;;
28166;SDS011;15455;53.376;-6.262;2023-05-10T08:28:36;1.67;;;0.35;;
28166;SDS011;15455;53.376;-6.262;2023-05-10T08:31:22;2.38;;;0.30;;
28166;SDS011;15455;53.376;-6.262;2023-05-10T08:34:08;2.80;;;0.47;;
28166;SDS011;15455;53.376;-6.262;2023-05-10T08:36:53;1.95;;;0.50;;
28166;SDS011;15455;53.376;-6.262;2023-05-10T08:39:39;2.45;;;0.70;;
28166;SDS011;15455;53.376;-6.262;2023-05-10T08:42:25;1.13;;;0.35;;
28166;SDS011;15455;53.376;-6.262;2023-05-10T08:45:15;3.20;;;0.55;;
28166;SDS011;15455;53.376;-6.262;2023-05-10T08:48:04;3.25;;;0.65;;
28166;SDS011;15455;53.376;-6.262;2023-05-10T08:50:52;4.95;;;0.55;;
28166;SDS011;15455;53.376;-6.262;2023-05-10T08:53:40;0.93;;;0.30;;
28166;SDS011;15455;53.376;-6.262;2023-05-10T08:56:25;0.98;;;0.40;;
28166;SDS011;15455;53.376;-6.262;2023-05-10T08:59:11;4.82;;;0.47;;
28166;SDS011;15455;53.376;-6.262;2023-05-10T09:01:58;3.50;;;0.40;;
28166;SDS011;15455;53.376;-6.262;2023-05-10T09:04:44;4.55;;;0.50;;
28166;SDS011;15455;53.376;-6.262;2023-05-10T09:07:30;2.00;;;0.38;;
28166;SDS011;15455;53.376;-6.262;2023-05-10T09:10:19;1.20;;;0.40;;
28166;SDS011;15455;53.376;-6.262;2023-05-10T09:13:05;1.02;;;0.50;;
28166;SDS011;15455;53.376;-6.262;2023-05-10T09:15:52;2.42;;;0.90;;
28166;SDS011;15455;53.376;-6.262;2023-05-10T09:18:38;1.17;;;0.30;;
28166;SDS011;15455;53.376;-6.262;2023-05-10T09:21:24;2.78;;;0.32;;
28166;SDS011;15455;53.376;-6.262;2023-05-10T09:24:10;2.47;;;0.20;;
28166;SDS011;15455;53.376;-6.262;2023-05-10T09:26:56;2.22;;;0.50;;
28166;SDS011;15455;53.376;-6.262;2023-05-10T09:29:42;2.33;;;0.30;;
28166;SDS011;15455;53.376;-6.262;2023-05-10T09:32:44;2.17;;;0.50;;
28166;SDS011;15455;53.376;-6.262;2023-05-10T09:35:31;1.65;;;0.30;;
28166;SDS011;15455;53.376;-6.262;2023-05-10T09:38:18;4.75;;;0.30;;
28166;SDS011;15455;53.376;-6.262;2023-05-10T09:41:14;0.88;;;0.20;;
28166;SDS011;15455;53.376;-6.262;2023-05-10T09:44:04;3.25;;;0.60;;
28166;SDS011;15455;53.376;-6.262;2023-05-10T09:46:50;1.15;;;0.40;;
28166;SDS011;15455;53.376;-6.262;2023-05-10T09:49:37;2.05;;;0.30;;
28166;SDS011;15455;53.376;-6.262;2023-05-10T09:52:23;1.67;;;0.50;;
28166;SDS011;15455;53.376;-6.262;2023-05-10T09:55:08;0.63;;;0.30;;
28166;SDS011;15455;53.376;-6.262;2023-05-10T09:58:00;1.45;;;0.65;;
28166;SDS011;15455;53.376;-6.262;2023-05-10T10:00:47;2.03;;;0.32;;
28166;SDS011;15455;53.376;-6.262;2023-05-10T10:03:41;0.80;;;0.50;;
28166;SDS011;15455;53.376;-6.262;2023-05-10T10:06:28;1.00;;;0.40;;
28166;SDS011;15455;53.376;-6.262;2023-05-10T10:09:14;3.65;;;0.68;;
28166;SDS011;15455;53.376;-6.262;2023-05-10T10:12:00;1.63;;;0.50;;
28166;SDS011;15455;53.376;-6.262;2023-05-10T10:14:47;0.52;;;0.43;;
28166;SDS011;15455;53.376;-6.262;2023-05-10T10:17:35;0.73;;;0.28;;
28166;SDS011;15455;53.376;-6.262;2023-05-10T10:20:23;0.82;;;0.25;;
28166;SDS011;15455;53.376;-6.262;2023-05-10T10:23:10;2.65;;;0.30;;
28166;SDS011;15455;53.376;-6.262;2023-05-10T10:25:55;0.30;;;0.15;;
28166;SDS011;15455;53.376;-6.262;2023-05-10T10:34:47;3.22;;;0.52;;
28166;SDS011;15455;53.376;-6.262;2023-05-10T10:37:46;1.45;;;0.40;;
28166;SDS011;15455;53.376;-6.262;2023-05-10T10:40:33;0.55;;;0.40;;
28166;SDS011;15455;53.376;-6.262;2023-05-10T10:43:26;5.50;;;0.68;;
28166;SDS011;15455;53.376;-6.262;2023-05-10T10:49:09;1.63;;;0.57;;
28166;SDS011;15455;53.376;-6.262;2023-05-10T10:55:10;1.20;;;0.43;;
28166;SDS011;15455;53.376;-6.262;2023-05-10T10:57:59;1.17;;;0.57;;
28166;SDS011;15455;53.376;-6.262;2023-05-10T11:00:49;0.47;;;0.25;;
28166;SDS011;15455;53.376;-6.262;2023-05-10T11:03:35;2.38;;;0.93;;
28166;SDS011;15455;53.376;-6.262;2023-05-10T11:06:30;0.38;;;0.30;;
28166;SDS011;15455;53.376;-6.262;2023-05-10T11:09:17;0.45;;;0.20;;
28166;SDS011;15455;53.376;-6.262;2023-05-10T11:12:07;0.10;;;0.10;;
28166;SDS011;15455;53.376;-6.262;2023-05-10T11:14:56;0.57;;;0.20;;
28166;SDS011;15455;53.376;-6.262;2023-05-10T11:17:42;0.30;;;0.25;;
28166;SDS011;15455;53.376;-6.262;2023-05-10T11:20:28;1.17;;;0.20;;
28166;SDS011;15455;53.376;-6.262;2023-05-10T11:23:18;1.15;;;0.47;;
28166;SDS011;15455;53.376;-6.262;2023-05-10T11:26:06;0.28;;;0.17;;
28166;SDS011;15455;53.376;-6.262;2023-05-10T11:28:56;1.63;;;0.40;;
28166;SDS011;15455;53.376;-6.262;2023-05-10T11:31:42;2.67;;;0.30;;
28166;SDS011;15455;53.376;-6.262;2023-05-10T11:34:30;1.25;;;0.30;;
28166;SDS011;15455;53.376;-6.262;2023-05-10T11:37:18;0.80;;;0.30;;
28166;SDS011;15455;53.376;-6.262;2023-05-10T11:40:04;1.45;;;0.30;;
28166;SDS011;15455;53.376;-6.262;2023-05-10T11:42:50;2.03;;;0.55;;
28166;SDS011;15455;53.376;-6.262;2023-05-10T11:45:36;1.10;;;0.50;;
28166;SDS011;15455;53.376;-6.262;2023-05-10T11:48:22;0.70;;;0.28;;
28166;SDS011;15455;53.376;-6.262;2023-05-10T11:51:09;2.72;;;0.50;;
28166;SDS011;15455;53.376;-6.262;2023-05-10T11:53:56;2.10;;;0.20;;
28166;SDS011;15455;53.376;-6.262;2023-05-10T11:56:42;2.22;;;0.43;;
28166;SDS011;15455;53.376;-6.262;2023-05-10T11:59:27;2.35;;;0.60;;
28166;SDS011;15455;53.376;-6.262;2023-05-10T12:02:13;1.63;;;0.30;;
28166;SDS011;15455;53.376;-6.262;2023-05-10T12:04:59;1.85;;;0.40;;
28166;SDS011;15455;53.376;-6.262;2023-05-10T12:07:45;1.10;;;0.85;;
28166;SDS011;15455;53.376;-6.262;2023-05-10T12:10:34;1.50;;;0.35;;
28166;SDS011;15455;53.376;-6.262;2023-05-10T12:13:20;3.58;;;0.28;;
28166;SDS011;15455;53.376;-6.262;2023-05-10T12:16:25;1.52;;;0.30;;
28166;SDS011;15455;53.376;-6.262;2023-05-10T12:19:13;1.25;;;0.30;;
28166;SDS011;15455;53.376;-6.262;2023-05-10T12:22:04;1.45;;;0.60;;
28166;SDS011;15455;53.376;-6.262;2023-05-10T12:24:51;0.95;;;0.30;;
28166;SDS011;15455;53.376;-6.262;2023-05-10T12:27:36;0.52;;;0.30;;
28166;SDS011;15455;53.376;-6.262;2023-05-10T12:30:39;0.68;;;0.30;;
28166;SDS011;15455;53.376;-6.262;2023-05-10T12:33:24;1.45;;;0.40;;
28166;SDS011;15455;53.376;-6.262;2023-05-10T12:36:11;1.40;;;0.38;;
28166;SDS011;15455;53.376;-6.262;2023-05-10T12:39:02;0.90;;;0.43;;
28166;SDS011;15455;53.376;-6.262;2023-05-10T12:41:48;2.90;;;0.60;;
28166;SDS011;15455;53.376;-6.262;2023-05-10T12:44:33;3.45;;;0.50;;
28166;SDS011;15455;53.376;-6.262;2023-05-10T12:47:19;1.95;;;0.40;;
28166;SDS011;15455;53.376;-6.262;2023-05-10T12:50:04;0.70;;;0.52;;
28166;SDS011;15455;53.376;-6.262;2023-05-10T12:52:50;3.00;;;0.40;;
28166;SDS011;15455;53.376;-6.262;2023-05-10T12:55:36;0.20;;;0.20;;
28166;SDS011;15455;53.376;-6.262;2023-05-10T12:58:21;0.32;;;0.25;;
28166;SDS011;15455;53.376;-6.262;2023-05-10T13:01:20;1.38;;;0.30;;
28166;SDS011;15455;53.376;-6.262;2023-05-10T13:04:05;0.28;;;0.20;;
28166;SDS011;15455;53.376;-6.262;2023-05-10T13:06:51;1.92;;;0.30;;
28166;SDS011;15455;53.376;-6.262;2023-05-10T13:09:36;0.55;;;0.15;;
28166;SDS011;15455;53.376;-6.262;2023-05-10T13:12:22;3.30;;;0.60;;
28166;SDS011;15455;53.376;-6.262;2023-05-10T13:15:07;2.40;;;0.47;;
28166;SDS011;15455;53.376;-6.262;2023-05-10T13:17:53;1.00;;;0.35;;
28166;SDS011;15455;53.376;-6.262;2023-05-10T13:20:39;0.82;;;0.30;;
28166;SDS011;15455;53.376;-6.262;2023-05-10T13:23:24;2.63;;;0.30;;
28166;SDS011;15455;53.376;-6.262;2023-05-10T13:26:10;0.68;;;0.40;;
28166;SDS011;15455;53.376;-6.262;2023-05-10T13:28:55;0.30;;;0.30;;
28166;SDS011;15455;53.376;-6.262;2023-05-10T13:31:40;0.47;;;0.20;;
28166;SDS011;15455;53.376;-6.262;2023-05-10T13:34:26;1.40;;;0.20;;
28166;SDS011;15455;53.376;-6.262;2023-05-10T13:37:11;0.77;;;0.30;;
28166;SDS011;15455;53.376;-6.262;2023-05-10T13:39:57;2.08;;;0.38;;
28166;SDS011;15455;53.376;-6.262;2023-05-10T13:42:43;0.40;;;0.40;;
28166;SDS011;15455;53.376;-6.262;2023-05-10T13:45:28;0.40;;;0.30;;
28166;SDS011;15455;53.376;-6.262;2023-05-10T13:48:14;0.50;;;0.30;;
28166;SDS011;15455;53.376;-6.262;2023-05-10T13:50:59;0.40;;;0.20;;
28166;SDS011;15455;53.376;-6.262;2023-05-10T13:53:44;1.42;;;0.28;;
28166;SDS011;15455;53.376;-6.262;2023-05-10T13:56:32;2.55;;;0.40;;
28166;SDS011;15455;53.376;-6.262;2023-05-10T13:59:17;0.80;;;0.40;;
28166;SDS011;15455;53.376;-6.262;2023-05-10T14:02:03;2.40;;;0.52;;
28166;SDS011;15455;53.376;-6.262;2023-05-10T14:04:49;0.25;;;0.20;;
28166;SDS011;15455;53.376;-6.262;2023-05-10T14:07:34;0.43;;;0.25;;
28166;SDS011;15455;53.376;-6.262;2023-05-10T14:10:19;0.20;;;0.20;;
28166;SDS011;15455;53.376;-6.262;2023-05-10T14:13:05;0.77;;;0.40;;
28166;SDS011;15455;53.376;-6.262;2023-05-10T14:15:52;0.25;;;0.20;;
28166;SDS011;15455;53.376;-6.262;2023-05-10T14:18:38;0.40;;;0.13;;
28166;SDS011;15455;53.376;-6.262;2023-05-10T14:21:24;1.90;;;0.17;;
28166;SDS011;15455;53.376;-6.262;2023-05-10T14:24:09;3.33;;;0.50;;
28166;SDS011;15455;53.376;-6.262;2023-05-10T14:26:55;1.42;;;0.40;;
28166;SDS011;15455;53.376;-6.262;2023-05-10T14:29:41;3.00;;;0.50;;
28166;SDS011;15455;53.376;-6.262;2023-05-10T14:32:26;3.25;;;0.52;;
28166;SDS011;15455;53.376;-6.262;2023-05-10T14:35:13;3.05;;;0.40;;
28166;SDS011;15455;53.376;-6.262;2023-05-10T14:38:02;1.45;;;0.32;;
28166;SDS011;15455;53.376;-6.262;2023-05-10T14:40:48;1.17;;;0.43;;
28166;SDS011;15455;53.376;-6.262;2023-05-10T14:43:34;0.90;;;0.28;;
28166;SDS011;15455;53.376;-6.262;2023-05-10T14:46:20;0.20;;;0.20;;
28166;SDS011;15455;53.376;-6.262;2023-05-10T14:49:05;1.02;;;0.30;;
28166;SDS011;15455;53.376;-6.262;2023-05-10T14:51:51;1.40;;;0.38;;
28166;SDS011;15455;53.376;-6.262;2023-05-10T14:54:37;1.58;;;0.40;;
28166;SDS011;15455;53.376;-6.262;2023-05-10T14:57:23;1.17;;;0.43;;
28166;SDS011;15455;53.376;-6.262;2023-05-10T15:00:09;0.52;;;0.30;;
28166;SDS011;15455;53.376;-6.262;2023-05-10T15:02:56;0.73;;;0.38;;
28166;SDS011;15455;53.376;-6.262;2023-05-10T15:05:42;0.77;;;0.50;;
28166;SDS011;15455;53.376;-6.262;2023-05-10T15:08:27;5.00;;;0.40;;
28166;SDS011;15455;53.376;-6.262;2023-05-10T15:11:12;2.65;;;0.68;;
28166;SDS011;15455;53.376;-6.262;2023-05-10T15:13:58;3.13;;;0.40;;
28166;SDS011;15455;53.376;-6.262;2023-05-10T15:16:43;1.50;;;0.52;;
28166;SDS011;15455;53.376;-6.262;2023-05-10T15:19:29;2.85;;;0.32;;
28166;SDS011;15455;53.376;-6.262;2023-05-10T15:22:14;2.90;;;0.65;;
28166;SDS011;15455;53.376;-6.262;2023-05-10T15:25:00;3.28;;;0.38;;
28166;SDS011;15455;53.376;-6.262;2023-05-10T15:27:46;2.42;;;0.38;;
28166;SDS011;15455;53.376;-6.262;2023-05-10T15:30:32;1.98;;;0.50;;
28166;SDS011;15455;53.376;-6.262;2023-05-10T15:33:17;2.25;;;0.30;;
28166;SDS011;15455;53.376;-6.262;2023-05-10T15:36:03;3.28;;;0.43;;
28166;SDS011;15455;53.376;-6.262;2023-05-10T15:38:49;3.55;;;0.50;;
28166;SDS011;15455;53.376;-6.262;2023-05-10T15:41:35;1.52;;;0.30;;
28166;SDS011;15455;53.376;-6.262;2023-05-10T15:44:20;0.50;;;0.30;;
28166;SDS011;15455;53.376;-6.262;2023-05-10T15:47:07;1.48;;;0.32;;
28166;SDS011;15455;53.376;-6.262;2023-05-10T15:49:52;2.25;;;0.25;;
28166;SDS011;15455;53.376;-6.262;2023-05-10T15:52:37;0.77;;;0.22;;
28166;SDS011;15455;53.376;-6.262;2023-05-10T15:55:23;0.95;;;0.55;;
28166;SDS011;15455;53.376;-6.262;2023-05-10T15:58:08;3.50;;;0.40;;
28166;SDS011;15455;53.376;-6.262;2023-05-10T16:00:55;1.23;;;0.60;;
28166;SDS011;15455;53.376;-6.262;2023-05-10T16:03:41;1.45;;;0.32;;
28166;SDS011;15455;53.376;-6.262;2023-05-10T16:06:27;0.60;;;0.20;;
28166;SDS011;15455;53.376;-6.262;2023-05-10T16:09:12;2.92;;;0.50;;
28166;SDS011;15455;53.376;-6.262;2023-05-10T16:11:58;1.65;;;0.40;;
28166;SDS011;15455;53.376;-6.262;2023-05-10T16:14:44;4.32;;;0.55;;
28166;SDS011;15455;53.376;-6.262;2023-05-10T16:17:30;2.83;;;0.38;;
28166;SDS011;15455;53.376;-6.262;2023-05-10T16:20:16;5.20;;;0.38;;
28166;SDS011;15455;53.376;-6.262;2023-05-10T16:23:03;2.08;;;0.47;;
28166;SDS011;15455;53.376;-6.262;2023-05-10T16:25:50;1.90;;;0.50;;
28166;SDS011;15455;53.376;-6.262;2023-05-10T16:28:36;0.93;;;0.30;;
28166;SDS011;15455;53.376;-6.262;2023-05-10T16:31:23;2.72;;;0.38;;
28166;SDS011;15455;53.376;-6.262;2023-05-10T16:34:08;1.42;;;0.30;;
28166;SDS011;15455;53.376;-6.262;2023-05-10T16:36:54;2.15;;;0.35;;
28166;SDS011;15455;53.376;-6.262;2023-05-10T16:39:40;2.90;;;0.82;;
28166;SDS011;15455;53.376;-6.262;2023-05-10T16:42:25;1.48;;;0.40;;
28166;SDS011;15455;53.376;-6.262;2023-05-10T16:45:12;2.13;;;0.30;;
28166;SDS011;15455;53.376;-6.262;2023-05-10T16:47:57;1.48;;;0.40;;
28166;SDS011;15455;53.376;-6.262;2023-05-10T16:50:43;1.17;;;0.43;;
28166;SDS011;15455;53.376;-6.262;2023-05-10T16:53:28;1.98;;;0.55;;
28166;SDS011;15455;53.376;-6.262;2023-05-10T16:56:15;3.55;;;0.95;;
28166;SDS011;15455;53.376;-6.262;2023-05-10T16:59:02;3.60;;;0.40;;
28166;SDS011;15455;53.376;-6.262;2023-05-10T17:01:47;3.47;;;0.40;;